Caviahue/Copahue, Argentina
Current Conditions -  °F | °C
As of 8:00 AM on Friday 28 Nov 2014 (Local Time) from SCQP Reporting Station
Moderate Fog Moderate Fog  
Wind Chill: 45°   Ceiling: 100
Heat Index: 45°   Visibility: 0.18mi
Dew Point: 45°   Wind: 2mph
Humidity: 100%   Direction: 70°ENE
Pressure: 30"   Gusts: NA
Location:  37.8°S, 71.12°W
Report Text: SCQP 281100Z 07002KT 0300 0250N R01/0300V300D FG VV001 07/07 Q1016
Loading
Personal Weather Stations






























Interactive Weather Map New forecast layout! Learn more

10-Day Weather Forecast

Advertisements
Track Severe Weather on mobile